createdAt,value
2018-02-05T00:02:03.074Z,90.00
2018-02-05T00:04:30.661Z,89.80
2018-02-05T00:06:58.206Z,90.00
2018-02-05T00:09:26.057Z,89.90
2018-02-05T00:11:53.508Z,90.00
2018-02-05T00:14:20.969Z,89.50
2018-02-05T00:16:48.463Z,89.70
2018-02-05T00:19:15.863Z,89.50
2018-02-05T00:21:43.338Z,89.70
2018-02-05T00:24:10.789Z,89.70
2018-02-05T00:26:38.218Z,89.90
2018-02-05T00:29:06.077Z,89.90
2018-02-05T00:31:33.526Z,89.90
2018-02-05T00:34:00.972Z,90.30
2018-02-05T00:36:28.415Z,90.40
2018-02-05T00:38:55.862Z,90.00
2018-02-05T00:41:23.326Z,90.00
2018-02-05T00:43:50.761Z,90.00
2018-02-05T00:46:18.213Z,90.10
2018-02-05T00:48:45.648Z,90.10
2018-02-05T00:51:13.200Z,90.00
2018-02-05T00:53:41.044Z,90.10
2018-02-05T00:56:08.487Z,90.10
2018-02-05T00:58:35.931Z,90.10
2018-02-05T01:01:03.383Z,90.40
2018-02-05T01:03:30.830Z,90.10
2018-02-05T01:05:58.296Z,90.60
2018-02-05T01:08:25.735Z,90.30
2018-02-05T01:10:53.188Z,90.50
2018-02-05T01:13:20.646Z,90.30
2018-02-05T01:15:48.110Z,90.30
2018-02-05T01:18:15.572Z,90.10
2018-02-05T01:20:43.022Z,90.30
2018-02-05T01:23:10.488Z,90.00
2018-02-05T01:25:38.010Z,90.10
2018-02-05T01:28:05.864Z,89.70
2018-02-05T01:30:33.694Z,89.70
2018-02-05T01:33:01.555Z,89.70
2018-02-05T01:35:29.016Z,89.60
2018-02-05T01:37:56.475Z,89.50
2018-02-05T01:40:23.932Z,89.70
2018-02-05T01:42:51.371Z,89.60
2018-02-05T01:45:18.814Z,89.60
2018-02-05T01:47:46.279Z,89.20
2018-02-05T01:50:13.731Z,89.30
2018-02-05T01:52:41.166Z,89.30
2018-02-05T01:55:08.618Z,89.00
2018-02-05T01:57:36.067Z,88.90
2018-02-05T02:00:03.516Z,88.90
2018-02-05T02:02:30.956Z,88.90
2018-02-05T02:04:58.403Z,88.90
2018-02-05T02:07:25.843Z,89.00
2018-02-05T02:09:53.311Z,88.70
2018-02-05T02:12:20.768Z,88.70
2018-02-05T02:14:48.207Z,88.90
2018-02-05T02:17:15.631Z,89.00
2018-02-05T02:19:43.097Z,89.00
2018-02-05T02:22:10.547Z,88.90
2018-02-05T02:24:37.990Z,88.60
2018-02-05T02:27:05.454Z,88.40
2018-02-05T02:29:32.915Z,88.60
2018-02-05T02:32:00.384Z,88.60
2018-02-05T02:34:27.831Z,88.40
2018-02-05T02:36:55.285Z,88.40
2018-02-05T02:39:22.735Z,88.40
2018-02-05T02:41:50.203Z,88.50
2018-02-05T02:44:17.648Z,88.50
2018-02-05T02:46:45.107Z,88.20
2018-02-05T02:49:12.560Z,88.50
2018-02-05T02:51:40.022Z,88.50
2018-02-05T02:54:07.463Z,88.30
2018-02-05T02:56:35.310Z,88.30
2018-02-05T02:59:02.790Z,88.30
2018-02-05T03:01:30.652Z,88.40
2018-02-05T03:03:58.092Z,88.40
2018-02-05T03:06:25.535Z,88.50
2018-02-05T03:08:53.007Z,88.60
2018-02-05T03:11:20.449Z,88.60
2018-02-05T03:13:47.891Z,88.80
2018-02-05T03:16:15.332Z,88.90
2018-02-05T03:18:42.795Z,88.90
2018-02-05T03:21:10.253Z,88.90
2018-02-05T03:23:37.691Z,88.70
2018-02-05T03:26:05.134Z,88.50
2018-02-05T03:28:32.587Z,88.90
2018-02-05T03:31:00.052Z,88.70
2018-02-05T03:33:27.490Z,88.70
2018-02-05T03:35:54.968Z,88.90
2018-02-05T03:38:22.409Z,88.90
2018-02-05T03:40:49.860Z,88.60
2018-02-05T03:43:17.319Z,88.90
2018-02-05T03:45:45.601Z,89.00
2018-02-05T03:48:13.045Z,89.10
2018-02-05T03:50:40.496Z,89.20
2018-02-05T03:53:08.035Z,89.00
2018-02-05T03:55:35.466Z,89.00
2018-02-05T03:58:02.920Z,89.20
2018-02-05T04:00:30.379Z,89.10
2018-02-05T04:02:57.851Z,89.00
2018-02-05T04:05:25.299Z,89.10
2018-02-05T04:07:52.763Z,89.00
2018-02-05T04:10:20.200Z,89.10
2018-02-05T04:12:47.659Z,89.10
2018-02-05T04:15:15.099Z,89.10
2018-02-05T04:17:42.551Z,89.10
2018-02-05T04:20:10.010Z,89.30
2018-02-05T04:22:38.326Z,89.20
2018-02-05T04:25:05.771Z,89.10
2018-02-05T04:27:33.222Z,89.30
2018-02-05T04:30:00.670Z,89.30
2018-02-05T04:32:28.142Z,89.30
2018-02-05T04:34:55.600Z,89.20
2018-02-05T04:39:56.948Z,89.20
2018-02-05T04:42:24.395Z,89.30
2018-02-05T04:44:51.829Z,89.20
2018-02-05T04:47:19.274Z,89.20
2018-02-05T04:49:47.112Z,89.30
2018-02-05T04:52:14.550Z,89.30
2018-02-05T04:54:42.006Z,89.40
2018-02-05T04:57:09.454Z,89.30
2018-02-05T04:59:36.905Z,89.60
2018-02-05T05:02:04.630Z,89.50
2018-02-05T05:04:32.098Z,89.40
2018-02-05T05:06:59.572Z,89.30
2018-02-05T05:09:27.053Z,89.50
2018-02-05T05:11:54.544Z,89.50
2018-02-05T05:14:21.978Z,89.30
2018-02-05T05:16:49.401Z,89.60
2018-02-05T05:19:16.822Z,89.10
2018-02-05T05:21:44.660Z,89.00
2018-02-05T05:24:12.073Z,89.00
2018-02-05T05:26:39.492Z,89.20
2018-02-05T05:29:06.901Z,89.20
2018-02-05T05:31:34.349Z,89.40
2018-02-05T05:34:01.797Z,89.40
2018-02-05T05:36:29.219Z,89.00
2018-02-05T05:38:57.029Z,89.30
2018-02-05T05:41:24.515Z,89.30
2018-02-05T05:43:51.918Z,89.50
2018-02-05T05:46:19.350Z,89.40
2018-02-05T05:48:47.163Z,89.20
2018-02-05T05:51:14.574Z,89.20
2018-02-05T05:53:41.989Z,89.20
2018-02-05T05:56:09.402Z,89.30
2018-02-05T05:58:36.909Z,89.30
2018-02-05T06:01:04.345Z,89.20
2018-02-05T06:03:31.872Z,89.20
2018-02-05T06:05:59.402Z,89.30
2018-02-05T06:08:26.859Z,89.00
2018-02-05T06:10:54.315Z,89.10
2018-02-05T06:13:21.815Z,89.00
2018-02-05T06:15:49.272Z,89.10
2018-02-05T06:18:17.491Z,89.10
2018-02-05T06:20:44.935Z,89.30
2018-02-05T06:23:13.046Z,89.20
2018-02-05T06:25:40.495Z,89.20
2018-02-05T06:28:08.496Z,89.00
2018-02-05T06:30:36.092Z,89.00
2018-02-05T06:33:03.615Z,89.10
2018-02-05T06:35:31.065Z,89.20
2018-02-05T06:37:58.694Z,89.50
2018-02-05T06:40:26.828Z,89.10
2018-02-05T06:42:54.374Z,89.00
2018-02-05T06:45:22.637Z,89.20
2018-02-05T06:47:50.301Z,89.00
2018-02-05T06:50:29.664Z,89.00
2018-02-05T06:53:08.804Z,88.90
2018-02-05T06:55:47.358Z,89.00
2018-02-05T06:58:14.919Z,89.30
2018-02-05T07:00:42.330Z,89.20
2018-02-05T07:03:09.776Z,89.20
2018-02-05T07:05:37.215Z,89.20
2018-02-05T07:08:04.653Z,89.20
2018-02-05T07:10:32.122Z,89.20
2018-02-05T07:12:59.854Z,89.00
2018-02-05T07:15:27.324Z,89.30
2018-02-05T07:17:54.809Z,89.30
2018-02-05T07:20:22.200Z,89.20
2018-02-05T07:22:49.614Z,89.20
2018-02-05T07:25:17.037Z,89.20
2018-02-05T07:27:44.849Z,88.90
2018-02-05T07:30:12.261Z,89.00
2018-02-05T07:32:39.680Z,89.00
2018-02-05T07:35:07.115Z,88.80
2018-02-05T07:37:34.536Z,88.90
2018-02-05T07:40:02.347Z,89.00
2018-02-05T07:42:29.773Z,89.00
2018-02-05T07:44:57.181Z,88.50
2018-02-05T07:47:24.607Z,88.70
2018-02-05T07:49:52.054Z,89.00
2018-02-05T07:52:19.829Z,88.60
2018-02-05T07:54:47.255Z,88.60
2018-02-05T07:57:14.683Z,88.40
2018-02-05T07:59:42.505Z,88.30
2018-02-05T08:02:09.983Z,88.30
2018-02-05T08:04:37.374Z,88.20
2018-02-05T08:07:05.944Z,88.20
2018-02-05T08:09:34.480Z,88.40
2018-02-05T08:12:01.922Z,88.10
2018-02-05T08:14:29.367Z,88.40
2018-02-05T08:16:56.810Z,88.30
2018-02-05T08:19:24.239Z,87.80
2018-02-05T08:21:51.664Z,87.90
2018-02-05T08:24:19.132Z,88.00
2018-02-05T08:26:46.563Z,88.10
2018-02-05T08:29:14.006Z,87.80
2018-02-05T08:31:41.445Z,87.90
2018-02-05T08:34:09.285Z,88.00
2018-02-05T08:36:36.730Z,88.00
2018-02-05T08:39:04.191Z,87.80
2018-02-05T08:41:31.643Z,87.70
2018-02-05T08:43:59.120Z,87.70
2018-02-05T08:46:26.542Z,87.40
2018-02-05T08:48:53.986Z,87.30
2018-02-05T08:51:21.441Z,87.10
2018-02-05T08:53:48.882Z,87.20
2018-02-05T08:56:16.326Z,87.30
2018-02-05T08:58:43.778Z,87.20
2018-02-05T09:01:11.250Z,86.50
2018-02-05T09:03:38.675Z,86.60
2018-02-05T09:06:06.507Z,86.30
2018-02-05T09:08:33.958Z,86.30
2018-02-05T09:11:01.428Z,86.10
2018-02-05T09:13:28.854Z,86.40
2018-02-05T09:15:56.279Z,85.50
2018-02-05T09:18:24.093Z,85.60
2018-02-05T09:20:51.526Z,85.60
2018-02-05T09:23:18.951Z,85.80
2018-02-05T09:25:46.378Z,85.50
2018-02-05T09:28:13.792Z,85.40
2018-02-05T09:30:41.210Z,85.40
2018-02-05T09:33:09.086Z,84.70
2018-02-05T09:35:36.894Z,84.80
2018-02-05T09:38:04.310Z,84.80
2018-02-05T09:40:32.640Z,85.10
2018-02-05T09:43:00.068Z,85.00
2018-02-05T09:45:27.495Z,85.00
2018-02-05T09:47:54.916Z,85.10
2018-02-05T09:50:22.340Z,84.80
2018-02-05T09:52:49.783Z,84.50
2018-02-05T09:55:17.573Z,84.10
2018-02-05T09:57:45.011Z,84.10
2018-02-05T10:00:12.431Z,84.10
2018-02-05T10:02:39.858Z,83.80
2018-02-05T10:05:07.274Z,83.90
2018-02-05T10:07:35.602Z,84.00
2018-02-05T10:10:03.008Z,83.90
2018-02-05T10:12:30.425Z,83.80
2018-02-05T10:14:58.232Z,83.50
2018-02-05T10:17:25.657Z,83.50
2018-02-05T10:19:53.071Z,83.20
2018-02-05T10:22:20.482Z,82.60
2018-02-05T10:24:47.893Z,82.70
2018-02-05T10:27:15.311Z,83.00
2018-02-05T10:29:42.745Z,82.40
2018-02-05T10:32:10.170Z,82.60
2018-02-05T10:34:37.586Z,82.80
2018-02-05T10:37:04.998Z,82.30
2018-02-05T10:39:32.810Z,82.30
2018-02-05T10:42:00.222Z,82.30
2018-02-05T10:44:27.634Z,82.20
2018-02-05T10:46:55.053Z,81.90
2018-02-05T10:49:22.462Z,81.90
2018-02-05T10:51:49.886Z,81.90
2018-02-05T10:54:17.286Z,81.50
2018-02-05T10:56:44.714Z,81.70
2018-02-05T10:59:12.117Z,81.40
2018-02-05T11:01:39.541Z,81.50
2018-02-05T11:04:06.959Z,81.20
2018-02-05T11:06:34.384Z,81.10
2018-02-05T11:09:01.795Z,81.30
2018-02-05T11:11:29.215Z,81.10
2018-02-05T11:13:56.629Z,81.10
2018-02-05T11:16:24.056Z,81.00
2018-02-05T11:18:51.461Z,80.90
2018-02-05T11:21:18.873Z,81.20
2018-02-05T11:23:46.276Z,81.20
2018-02-05T11:26:13.689Z,81.10
2018-02-05T11:28:41.114Z,80.50
2018-02-05T11:31:08.539Z,80.60
2018-02-05T11:33:35.979Z,80.60
2018-02-05T11:36:03.412Z,80.40
2018-02-05T11:38:30.850Z,80.00
2018-02-05T11:40:58.293Z,80.30
2018-02-05T11:43:25.741Z,80.20
2018-02-05T11:45:53.180Z,79.60
2018-02-05T11:48:21.019Z,79.30
2018-02-05T11:50:48.453Z,79.30
2018-02-05T11:53:15.906Z,78.80
2018-02-05T11:55:43.347Z,79.00
2018-02-05T11:58:10.785Z,78.70
2018-02-05T12:00:38.221Z,79.20
2018-02-05T12:03:06.067Z,78.40
2018-02-05T12:05:33.490Z,78.40
2018-02-05T12:08:00.931Z,78.30
2018-02-05T12:10:28.366Z,77.80
2018-02-05T12:12:55.815Z,77.30
2018-02-05T12:15:23.646Z,77.80
2018-02-05T12:17:51.095Z,77.80
2018-02-05T12:20:18.535Z,77.70
2018-02-05T12:22:46.006Z,76.50
2018-02-05T12:25:13.418Z,76.40
2018-02-05T12:27:40.858Z,76.60
2018-02-05T12:30:08.308Z,76.30
2018-02-05T12:32:35.746Z,75.80
2018-02-05T12:35:03.184Z,75.30
2018-02-05T12:37:30.635Z,75.20
2018-02-05T12:39:58.076Z,75.10
2018-02-05T12:42:25.510Z,75.20
2018-02-05T12:44:52.947Z,75.20
2018-02-05T12:47:20.790Z,75.70
2018-02-05T12:49:48.230Z,75.70
2018-02-05T12:52:15.667Z,75.30
2018-02-05T12:54:43.107Z,74.80
2018-02-05T12:57:10.546Z,74.90
2018-02-05T13:03:05.895Z,75.30
2018-02-05T13:05:33.303Z,74.40
2018-02-05T13:08:00.722Z,74.60
2018-02-05T13:10:28.137Z,75.20
2018-02-05T13:12:55.958Z,74.40
2018-02-05T13:15:23.370Z,74.40
2018-02-05T13:17:50.810Z,73.90
2018-02-05T13:20:18.244Z,73.80
2018-02-05T13:22:45.660Z,73.50
2018-02-05T13:25:13.096Z,74.10
2018-02-05T13:27:40.924Z,73.50
2018-02-05T13:30:08.341Z,73.50
2018-02-05T13:32:35.773Z,73.80
2018-02-05T13:35:03.185Z,73.30
2018-02-05T13:37:30.614Z,73.40
2018-02-05T13:39:58.028Z,73.50
2018-02-05T13:42:25.845Z,73.20
2018-02-05T13:47:27.913Z,73.10
2018-02-05T13:49:55.292Z,73.30
2018-02-05T13:52:22.704Z,73.50
2018-02-05T13:54:50.123Z,73.40
2018-02-05T13:57:17.529Z,73.50
2018-02-05T13:59:44.954Z,72.90
2018-02-05T14:02:12.374Z,73.30
2018-02-05T14:04:40.635Z,73.40
2018-02-05T14:07:08.054Z,72.90
2018-02-05T14:09:35.477Z,72.60
2018-02-05T14:12:02.902Z,71.80
2018-02-05T14:14:30.335Z,72.10
2018-02-05T14:16:57.780Z,72.30
2018-02-05T14:19:25.162Z,72.00
2018-02-05T14:21:52.581Z,71.80
2018-02-05T14:24:20.026Z,72.00
2018-02-05T14:26:47.842Z,71.90
2018-02-05T14:29:15.262Z,71.90
2018-02-05T14:31:42.671Z,71.40
2018-02-05T14:34:10.084Z,71.90
2018-02-05T14:36:37.528Z,71.60
2018-02-05T14:39:04.958Z,71.20
2018-02-05T14:41:32.382Z,71.20
2018-02-05T14:43:59.798Z,71.40
2018-02-05T14:46:27.205Z,71.80
2018-02-05T14:48:54.617Z,71.10
2018-02-05T14:51:22.030Z,71.70
2018-02-05T14:53:49.441Z,71.70
2018-02-05T14:56:16.853Z,71.90
2018-02-05T14:58:44.273Z,71.80
2018-02-05T15:01:11.690Z,74.40
2018-02-05T15:03:39.110Z,75.40
2018-02-05T15:06:06.520Z,75.70
2018-02-05T15:08:33.926Z,75.60
2018-02-05T15:11:01.338Z,75.60
2018-02-05T15:13:28.762Z,76.00
2018-02-05T15:15:56.561Z,76.30
2018-02-05T15:18:23.983Z,76.30
2018-02-05T15:20:51.397Z,75.90
2018-02-05T15:23:18.805Z,76.40
2018-02-05T15:25:46.233Z,76.50
2018-02-05T15:28:14.045Z,76.80
2018-02-05T15:30:41.453Z,76.80
2018-02-05T15:33:08.874Z,76.70
2018-02-05T15:35:36.282Z,77.30
2018-02-05T15:38:03.705Z,77.20
2018-02-05T15:40:31.117Z,77.10
2018-02-05T15:42:58.573Z,77.10
2018-02-05T15:45:26.686Z,77.60
2018-02-05T15:47:54.102Z,77.60
2018-02-05T15:50:21.504Z,77.90
2018-02-05T15:52:48.918Z,77.90
2018-02-05T15:55:16.346Z,78.00
2018-02-05T15:57:43.754Z,78.10
2018-02-05T16:00:11.165Z,78.10
2018-02-05T16:02:38.571Z,78.20
2018-02-05T16:05:05.986Z,78.20
2018-02-05T16:07:33.406Z,78.30
2018-02-05T16:10:01.213Z,78.40
2018-02-05T16:12:28.618Z,78.40
2018-02-05T16:14:56.431Z,78.60
2018-02-05T16:17:23.854Z,78.60
2018-02-05T16:19:51.654Z,77.80
2018-02-05T16:22:19.068Z,77.80
2018-02-05T16:24:46.882Z,77.70
2018-02-05T16:27:14.294Z,77.70
2018-02-05T16:29:42.104Z,77.50
2018-02-05T16:32:09.510Z,77.50
2018-02-05T16:34:36.922Z,77.70
2018-02-05T16:37:04.335Z,77.90
2018-02-05T16:39:32.141Z,78.00
2018-02-05T16:41:59.554Z,78.00
2018-02-05T16:44:26.961Z,78.20
2018-02-05T16:46:54.368Z,78.50
2018-02-05T16:49:21.789Z,78.60
2018-02-05T16:51:49.205Z,78.60
2018-02-05T16:54:16.623Z,78.40
2018-02-05T16:56:45.108Z,79.10
2018-02-05T16:59:12.521Z,79.10
2018-02-05T17:01:39.934Z,79.10
2018-02-05T17:04:07.353Z,78.90
2018-02-05T17:06:34.783Z,79.00
2018-02-05T17:09:02.205Z,78.80
2018-02-05T17:11:29.613Z,79.20
2018-02-05T17:13:57.031Z,79.30
2018-02-05T17:16:24.459Z,79.30
2018-02-05T17:18:51.865Z,79.20
2018-02-05T17:21:19.282Z,79.40
2018-02-05T17:23:46.713Z,79.40
2018-02-05T17:26:14.156Z,79.40
2018-02-05T17:28:41.537Z,79.40
2018-02-05T17:31:08.950Z,79.80
2018-02-05T17:33:36.369Z,80.00
2018-02-05T17:36:03.818Z,80.00
2018-02-05T17:38:31.263Z,80.10
2018-02-05T17:40:58.745Z,80.00
2018-02-05T17:43:26.165Z,80.30
2018-02-05T17:45:53.597Z,80.40
2018-02-05T17:48:21.722Z,80.50
2018-02-05T17:50:49.135Z,80.30
2018-02-05T17:53:19.336Z,80.20
2018-02-05T17:55:58.023Z,80.20
2018-02-05T17:58:25.442Z,80.60
2018-02-05T18:00:52.859Z,80.70
2018-02-05T18:03:20.287Z,80.80
2018-02-05T18:05:47.768Z,80.80
2018-02-05T18:08:15.207Z,81.10
2018-02-05T18:10:42.621Z,81.20
2018-02-05T18:13:10.469Z,81.20
2018-02-05T18:15:37.927Z,81.20
2018-02-05T18:18:05.295Z,81.20
2018-02-05T18:20:33.101Z,81.30
2018-02-05T18:23:00.519Z,81.30
2018-02-05T18:25:28.329Z,81.60
2018-02-05T18:27:55.757Z,81.60
2018-02-05T18:30:23.183Z,81.80
2018-02-05T18:32:50.589Z,81.80
2018-02-05T18:35:17.997Z,81.60
2018-02-05T18:37:45.401Z,81.50
2018-02-05T18:40:12.821Z,81.70
2018-02-05T18:42:40.250Z,81.50
2018-02-05T18:45:07.662Z,81.60
2018-02-05T18:47:35.102Z,81.90
2018-02-05T18:50:02.901Z,81.60
2018-02-05T18:52:30.313Z,81.60
2018-02-05T18:54:58.141Z,81.90
2018-02-05T18:57:25.569Z,81.90
2018-02-05T18:59:52.980Z,81.50
2018-02-05T19:02:21.559Z,82.00
2018-02-05T19:04:48.978Z,82.00
2018-02-05T19:07:16.406Z,82.20
2018-02-05T19:09:43.833Z,82.20
2018-02-05T19:12:11.673Z,82.30
2018-02-05T19:14:39.093Z,82.30
2018-02-05T19:17:06.512Z,82.30
2018-02-05T19:19:33.929Z,82.20
2018-02-05T19:22:01.355Z,81.90
2018-02-05T19:24:28.778Z,82.10
2018-02-05T19:26:56.598Z,82.30
2018-02-05T19:29:24.017Z,82.30
2018-02-05T19:31:51.442Z,82.60
2018-02-05T19:34:18.866Z,82.50
2018-02-05T19:36:46.280Z,82.40
2018-02-05T19:39:13.709Z,82.40
2018-02-05T19:41:44.119Z,82.50
2018-02-05T19:44:12.493Z,82.40
2018-02-05T19:46:39.903Z,82.30
2018-02-05T19:49:07.332Z,82.10
2018-02-05T19:51:34.750Z,82.30
2018-02-05T19:54:02.184Z,82.20
2018-02-05T19:56:29.624Z,81.90
2018-02-05T19:58:57.419Z,82.00
2018-02-05T20:01:24.823Z,82.00
2018-02-05T20:03:52.241Z,82.10
2018-02-05T20:06:19.656Z,82.20
2018-02-05T20:08:47.081Z,81.80
2018-02-05T20:11:15.520Z,82.20
2018-02-05T20:13:42.951Z,82.10
2018-02-05T20:16:10.394Z,82.10
2018-02-05T20:18:37.838Z,82.50
2018-02-05T20:21:05.300Z,82.80
2018-02-05T20:23:32.726Z,83.10
2018-02-05T20:26:00.210Z,83.30
2018-02-05T20:28:28.046Z,83.50
2018-02-05T20:33:29.481Z,83.70
2018-02-05T20:35:56.918Z,83.90
2018-02-05T20:38:24.383Z,84.00
2018-02-05T20:40:51.835Z,83.90
2018-02-05T20:43:19.277Z,83.90
2018-02-05T20:45:46.718Z,84.00
2018-02-05T20:48:14.558Z,84.00
2018-02-05T20:50:41.998Z,84.00
2018-02-05T20:53:09.462Z,83.90
2018-02-05T20:55:36.914Z,84.10
2018-02-05T20:58:04.398Z,84.00
2018-02-05T21:00:31.798Z,84.10
2018-02-05T21:02:59.238Z,84.00
2018-02-05T21:05:26.724Z,83.90
2018-02-05T21:07:54.142Z,84.00
2018-02-05T21:10:21.990Z,84.10
2018-02-05T21:12:49.434Z,84.10
2018-02-05T21:15:16.885Z,84.00
2018-02-05T21:17:44.343Z,83.90
2018-02-05T21:20:11.787Z,84.10
2018-02-05T21:22:39.237Z,84.20
2018-02-05T21:25:06.693Z,84.20
2018-02-05T21:27:34.147Z,84.20
2018-02-05T21:30:01.600Z,84.10
2018-02-05T21:32:29.042Z,84.20
2018-02-05T21:34:56.485Z,84.20
2018-02-05T21:37:23.935Z,84.30
2018-02-05T21:39:51.773Z,84.40
2018-02-05T21:42:19.218Z,84.40
2018-02-05T21:44:46.673Z,84.20
2018-02-05T21:47:14.111Z,84.00
2018-02-05T21:49:41.556Z,83.90
2018-02-05T21:52:08.999Z,84.00
2018-02-05T21:54:36.453Z,84.10
2018-02-05T21:57:03.893Z,84.10
2018-02-05T21:59:31.737Z,83.90
2018-02-05T22:01:59.183Z,83.90
2018-02-05T22:04:26.618Z,84.10
2018-02-05T22:06:54.075Z,84.00
2018-02-05T22:09:21.515Z,84.00
2018-02-05T22:11:48.942Z,83.90
2018-02-05T22:14:16.390Z,84.00
2018-02-05T22:16:44.222Z,83.80
2018-02-05T22:19:11.667Z,83.80
2018-02-05T22:21:39.108Z,84.00
2018-02-05T22:24:06.555Z,83.80
2018-02-05T22:26:33.998Z,83.80
2018-02-05T22:29:01.449Z,83.80
2018-02-05T22:31:28.882Z,83.90
2018-02-05T22:33:56.329Z,83.70
2018-02-05T22:36:23.767Z,83.60
2018-02-05T22:38:51.226Z,83.80
2018-02-05T22:41:18.654Z,83.90
2018-02-05T22:43:46.102Z,83.50
2018-02-05T22:46:13.517Z,83.40
2018-02-05T22:48:40.969Z,83.40
2018-02-05T22:51:08.532Z,83.30
2018-02-05T22:53:36.401Z,83.30
2018-02-05T22:56:05.023Z,83.40
2018-02-05T22:58:33.066Z,83.50
2018-02-05T23:01:01.506Z,83.30
2018-02-05T23:03:31.004Z,83.30
2018-02-05T23:05:59.097Z,83.40
2018-02-05T23:08:26.791Z,83.10
2018-02-05T23:10:54.857Z,83.50
2018-02-05T23:13:22.441Z,83.50
2018-02-05T23:15:50.013Z,83.10
2018-02-05T23:18:21.354Z,83.30
2018-02-05T23:20:49.107Z,83.00
2018-02-05T23:23:16.691Z,83.10
2018-02-05T23:25:44.235Z,83.20
2018-02-05T23:28:11.868Z,83.30
2018-02-05T23:30:39.466Z,83.50
2018-02-05T23:33:06.993Z,83.50
2018-02-05T23:35:34.541Z,83.60
2018-02-05T23:40:36.276Z,83.70
2018-02-05T23:43:03.851Z,83.50
2018-02-05T23:45:31.427Z,83.60
2018-02-05T23:47:59.725Z,83.30
2018-02-05T23:50:27.328Z,83.40
2018-02-05T23:52:54.933Z,83.50
2018-02-05T23:55:22.919Z,83.40
2018-02-05T23:57:50.863Z,83.60
